sensor_id;sensor_type;location;lat;lon;timestamp;P1;durP1;ratioP1;P2;durP2;ratioP2
13849;SDS011;6995;52.618;13.488;2023-06-19T00:00:30;41.60;;;39.40;;
13849;SDS011;6995;52.618;13.488;2023-06-19T00:02:56;43.33;;;40.63;;
13849;SDS011;6995;52.618;13.488;2023-06-19T00:05:21;42.83;;;40.53;;
13849;SDS011;6995;52.618;13.488;2023-06-19T00:07:48;43.08;;;40.70;;
13849;SDS011;6995;52.618;13.488;2023-06-19T00:10:14;39.78;;;37.63;;
13849;SDS011;6995;52.618;13.488;2023-06-19T00:12:40;42.33;;;40.08;;
13849;SDS011;6995;52.618;13.488;2023-06-19T00:15:06;43.08;;;40.50;;
13849;SDS011;6995;52.618;13.488;2023-06-19T00:17:34;39.97;;;37.58;;
13849;SDS011;6995;52.618;13.488;2023-06-19T00:20:02;38.78;;;36.35;;
13849;SDS011;6995;52.618;13.488;2023-06-19T00:22:28;38.38;;;36.25;;
13849;SDS011;6995;52.618;13.488;2023-06-19T00:24:54;38.45;;;36.15;;
13849;SDS011;6995;52.618;13.488;2023-06-19T00:27:19;36.35;;;33.95;;
13849;SDS011;6995;52.618;13.488;2023-06-19T00:29:45;39.13;;;36.92;;
13849;SDS011;6995;52.618;13.488;2023-06-19T00:32:11;39.88;;;37.58;;
13849;SDS011;6995;52.618;13.488;2023-06-19T00:34:36;38.90;;;36.53;;
13849;SDS011;6995;52.618;13.488;2023-06-19T00:37:02;42.55;;;40.17;;
13849;SDS011;6995;52.618;13.488;2023-06-19T00:39:28;41.88;;;39.45;;
13849;SDS011;6995;52.618;13.488;2023-06-19T00:41:57;41.25;;;38.85;;
13849;SDS011;6995;52.618;13.488;2023-06-19T00:44:22;39.03;;;36.72;;
13849;SDS011;6995;52.618;13.488;2023-06-19T00:46:54;44.00;;;41.60;;
13849;SDS011;6995;52.618;13.488;2023-06-19T00:49:22;43.92;;;41.50;;
13849;SDS011;6995;52.618;13.488;2023-06-19T00:51:48;40.65;;;38.22;;
13849;SDS011;6995;52.618;13.488;2023-06-19T00:54:16;40.67;;;38.33;;
13849;SDS011;6995;52.618;13.488;2023-06-19T00:56:42;40.40;;;38.10;;
13849;SDS011;6995;52.618;13.488;2023-06-19T00:59:11;40.53;;;38.13;;
13849;SDS011;6995;52.618;13.488;2023-06-19T01:01:43;41.72;;;39.47;;
13849;SDS011;6995;52.618;13.488;2023-06-19T01:04:10;46.30;;;43.45;;
13849;SDS011;6995;52.618;13.488;2023-06-19T01:06:42;47.33;;;44.20;;
13849;SDS011;6995;52.618;13.488;2023-06-19T01:09:36;45.28;;;42.67;;
13849;SDS011;6995;52.618;13.488;2023-06-19T01:12:14;45.83;;;43.35;;
13849;SDS011;6995;52.618;13.488;2023-06-19T01:15:04;48.25;;;45.42;;
13849;SDS011;6995;52.618;13.488;2023-06-19T01:17:32;45.60;;;42.95;;
13849;SDS011;6995;52.618;13.488;2023-06-19T01:19:59;43.75;;;41.15;;
13849;SDS011;6995;52.618;13.488;2023-06-19T01:22:31;42.92;;;40.63;;
13849;SDS011;6995;52.618;13.488;2023-06-19T01:24:56;41.92;;;39.45;;
13849;SDS011;6995;52.618;13.488;2023-06-19T01:27:25;44.05;;;41.35;;
13849;SDS011;6995;52.618;13.488;2023-06-19T01:29:54;44.67;;;42.15;;
13849;SDS011;6995;52.618;13.488;2023-06-19T01:32:26;40.67;;;38.38;;
13849;SDS011;6995;52.618;13.488;2023-06-19T01:35:00;42.78;;;40.05;;
13849;SDS011;6995;52.618;13.488;2023-06-19T01:37:27;42.78;;;40.20;;
13849;SDS011;6995;52.618;13.488;2023-06-19T01:39:56;38.88;;;36.58;;
13849;SDS011;6995;52.618;13.488;2023-06-19T01:42:23;42.42;;;39.92;;
13849;SDS011;6995;52.618;13.488;2023-06-19T01:44:49;43.10;;;40.38;;
13849;SDS011;6995;52.618;13.488;2023-06-19T01:47:16;41.78;;;39.05;;
13849;SDS011;6995;52.618;13.488;2023-06-19T01:49:45;46.75;;;44.00;;
13849;SDS011;6995;52.618;13.488;2023-06-19T01:52:11;44.42;;;41.65;;
13849;SDS011;6995;52.618;13.488;2023-06-19T01:54:37;45.70;;;43.10;;
13849;SDS011;6995;52.618;13.488;2023-06-19T01:57:02;44.20;;;41.58;;
13849;SDS011;6995;52.618;13.488;2023-06-19T01:59:28;42.53;;;40.05;;
13849;SDS011;6995;52.618;13.488;2023-06-19T02:01:54;41.15;;;38.83;;
13849;SDS011;6995;52.618;13.488;2023-06-19T02:04:19;43.63;;;41.20;;
13849;SDS011;6995;52.618;13.488;2023-06-19T02:06:45;42.85;;;40.28;;
13849;SDS011;6995;52.618;13.488;2023-06-19T02:09:10;40.60;;;38.03;;
13849;SDS011;6995;52.618;13.488;2023-06-19T02:11:36;43.55;;;41.05;;
13849;SDS011;6995;52.618;13.488;2023-06-19T02:14:01;44.28;;;41.67;;
13849;SDS011;6995;52.618;13.488;2023-06-19T02:16:27;46.03;;;43.33;;
13849;SDS011;6995;52.618;13.488;2023-06-19T02:18:53;43.92;;;41.22;;
13849;SDS011;6995;52.618;13.488;2023-06-19T02:21:18;45.13;;;42.42;;
13849;SDS011;6995;52.618;13.488;2023-06-19T02:23:44;46.75;;;44.08;;
13849;SDS011;6995;52.618;13.488;2023-06-19T02:26:09;48.75;;;45.97;;
13849;SDS011;6995;52.618;13.488;2023-06-19T02:28:35;45.72;;;43.13;;
13849;SDS011;6995;52.618;13.488;2023-06-19T02:31:00;47.22;;;44.53;;
13849;SDS011;6995;52.618;13.488;2023-06-19T02:33:26;47.08;;;44.35;;
13849;SDS011;6995;52.618;13.488;2023-06-19T02:35:52;49.22;;;46.17;;
13849;SDS011;6995;52.618;13.488;2023-06-19T02:38:17;46.53;;;43.83;;
13849;SDS011;6995;52.618;13.488;2023-06-19T02:40:46;48.97;;;46.17;;
13849;SDS011;6995;52.618;13.488;2023-06-19T02:43:11;46.50;;;43.80;;
13849;SDS011;6995;52.618;13.488;2023-06-19T02:45:37;47.35;;;44.55;;
13849;SDS011;6995;52.618;13.488;2023-06-19T02:48:04;46.47;;;43.63;;
13849;SDS011;6995;52.618;13.488;2023-06-19T02:50:30;47.10;;;44.42;;
13849;SDS011;6995;52.618;13.488;2023-06-19T02:52:59;55.22;;;51.92;;
13849;SDS011;6995;52.618;13.488;2023-06-19T02:55:24;60.75;;;57.22;;
13849;SDS011;6995;52.618;13.488;2023-06-19T02:57:50;46.95;;;44.03;;
13849;SDS011;6995;52.618;13.488;2023-06-19T03:00:16;48.95;;;45.83;;
13849;SDS011;6995;52.618;13.488;2023-06-19T03:02:42;52.00;;;49.10;;
13849;SDS011;6995;52.618;13.488;2023-06-19T03:05:09;43.83;;;40.92;;
13849;SDS011;6995;52.618;13.488;2023-06-19T03:07:35;50.38;;;47.38;;
13849;SDS011;6995;52.618;13.488;2023-06-19T03:10:01;45.28;;;42.58;;
13849;SDS011;6995;52.618;13.488;2023-06-19T03:12:27;49.60;;;46.60;;
13849;SDS011;6995;52.618;13.488;2023-06-19T03:14:53;53.03;;;49.78;;
13849;SDS011;6995;52.618;13.488;2023-06-19T03:17:18;46.92;;;44.00;;
13849;SDS011;6995;52.618;13.488;2023-06-19T03:19:44;53.30;;;50.00;;
13849;SDS011;6995;52.618;13.488;2023-06-19T03:22:09;44.88;;;41.90;;
13849;SDS011;6995;52.618;13.488;2023-06-19T03:24:35;51.20;;;48.13;;
13849;SDS011;6995;52.618;13.488;2023-06-19T03:27:01;46.63;;;43.92;;
13849;SDS011;6995;52.618;13.488;2023-06-19T03:29:26;46.63;;;43.97;;
13849;SDS011;6995;52.618;13.488;2023-06-19T03:31:52;51.40;;;48.30;;
13849;SDS011;6995;52.618;13.488;2023-06-19T03:34:17;47.08;;;43.80;;
13849;SDS011;6995;52.618;13.488;2023-06-19T03:36:43;45.78;;;42.42;;
13849;SDS011;6995;52.618;13.488;2023-06-19T03:39:08;45.45;;;42.53;;
13849;SDS011;6995;52.618;13.488;2023-06-19T03:41:34;45.80;;;43.10;;
13849;SDS011;6995;52.618;13.488;2023-06-19T03:44:00;48.13;;;45.25;;
13849;SDS011;6995;52.618;13.488;2023-06-19T03:46:25;46.83;;;43.83;;
13849;SDS011;6995;52.618;13.488;2023-06-19T03:48:51;48.03;;;45.33;;
13849;SDS011;6995;52.618;13.488;2023-06-19T03:51:16;58.28;;;55.05;;
13849;SDS011;6995;52.618;13.488;2023-06-19T03:53:42;55.22;;;52.10;;
13849;SDS011;6995;52.618;13.488;2023-06-19T03:56:08;53.15;;;49.85;;
13849;SDS011;6995;52.618;13.488;2023-06-19T03:58:33;48.15;;;45.35;;
13849;SDS011;6995;52.618;13.488;2023-06-19T04:00:59;52.35;;;49.33;;
13849;SDS011;6995;52.618;13.488;2023-06-19T04:03:24;50.65;;;47.70;;
13849;SDS011;6995;52.618;13.488;2023-06-19T04:05:50;53.80;;;50.63;;
13849;SDS011;6995;52.618;13.488;2023-06-19T04:08:16;51.78;;;48.75;;
13849;SDS011;6995;52.618;13.488;2023-06-19T04:10:41;52.55;;;49.33;;
13849;SDS011;6995;52.618;13.488;2023-06-19T04:13:07;49.40;;;46.42;;
13849;SDS011;6995;52.618;13.488;2023-06-19T04:15:33;51.83;;;48.80;;
13849;SDS011;6995;52.618;13.488;2023-06-19T04:18:00;50.33;;;47.33;;
13849;SDS011;6995;52.618;13.488;2023-06-19T04:20:26;50.03;;;47.00;;
13849;SDS011;6995;52.618;13.488;2023-06-19T04:22:52;54.05;;;50.63;;
13849;SDS011;6995;52.618;13.488;2023-06-19T04:25:17;49.78;;;46.80;;
13849;SDS011;6995;52.618;13.488;2023-06-19T04:27:43;50.55;;;47.45;;
13849;SDS011;6995;52.618;13.488;2023-06-19T04:30:12;52.58;;;49.35;;
13849;SDS011;6995;52.618;13.488;2023-06-19T04:32:38;54.28;;;51.17;;
13849;SDS011;6995;52.618;13.488;2023-06-19T04:35:09;49.55;;;46.65;;
13849;SDS011;6995;52.618;13.488;2023-06-19T04:37:35;52.60;;;49.42;;
13849;SDS011;6995;52.618;13.488;2023-06-19T04:40:01;51.42;;;48.15;;
13849;SDS011;6995;52.618;13.488;2023-06-19T04:42:28;51.65;;;48.55;;
13849;SDS011;6995;52.618;13.488;2023-06-19T04:44:54;49.92;;;46.97;;
13849;SDS011;6995;52.618;13.488;2023-06-19T04:47:22;49.65;;;46.40;;
13849;SDS011;6995;52.618;13.488;2023-06-19T04:49:48;50.58;;;47.47;;
13849;SDS011;6995;52.618;13.488;2023-06-19T04:52:13;52.45;;;49.42;;
13849;SDS011;6995;52.618;13.488;2023-06-19T04:54:39;48.22;;;45.05;;
13849;SDS011;6995;52.618;13.488;2023-06-19T04:57:05;49.97;;;46.55;;
13849;SDS011;6995;52.618;13.488;2023-06-19T04:59:31;49.42;;;46.35;;
13849;SDS011;6995;52.618;13.488;2023-06-19T05:01:58;49.25;;;46.38;;
13849;SDS011;6995;52.618;13.488;2023-06-19T05:04:24;49.75;;;46.58;;
13849;SDS011;6995;52.618;13.488;2023-06-19T05:06:50;48.67;;;45.72;;
13849;SDS011;6995;52.618;13.488;2023-06-19T05:09:16;49.55;;;46.65;;
13849;SDS011;6995;52.618;13.488;2023-06-19T05:11:42;51.55;;;48.42;;
13849;SDS011;6995;52.618;13.488;2023-06-19T05:14:07;49.00;;;45.97;;
13849;SDS011;6995;52.618;13.488;2023-06-19T05:16:33;43.22;;;40.58;;
13849;SDS011;6995;52.618;13.488;2023-06-19T05:18:59;49.95;;;46.90;;
13849;SDS011;6995;52.618;13.488;2023-06-19T05:21:25;48.30;;;45.50;;
13849;SDS011;6995;52.618;13.488;2023-06-19T05:23:55;47.40;;;44.40;;
13849;SDS011;6995;52.618;13.488;2023-06-19T05:26:20;47.38;;;44.38;;
13849;SDS011;6995;52.618;13.488;2023-06-19T05:28:47;49.30;;;45.95;;
13849;SDS011;6995;52.618;13.488;2023-06-19T05:31:14;51.63;;;48.28;;
13849;SDS011;6995;52.618;13.488;2023-06-19T05:33:40;44.90;;;41.90;;
13849;SDS011;6995;52.618;13.488;2023-06-19T05:36:06;52.20;;;49.10;;
13849;SDS011;6995;52.618;13.488;2023-06-19T05:38:32;47.22;;;44.42;;
13849;SDS011;6995;52.618;13.488;2023-06-19T05:40:58;47.28;;;44.38;;
13849;SDS011;6995;52.618;13.488;2023-06-19T05:43:24;44.60;;;41.97;;
13849;SDS011;6995;52.618;13.488;2023-06-19T05:45:50;45.47;;;42.75;;
13849;SDS011;6995;52.618;13.488;2023-06-19T05:48:16;42.67;;;39.92;;
13849;SDS011;6995;52.618;13.488;2023-06-19T05:50:42;46.30;;;43.50;;
13849;SDS011;6995;52.618;13.488;2023-06-19T05:53:07;45.25;;;42.28;;
13849;SDS011;6995;52.618;13.488;2023-06-19T05:55:33;46.60;;;43.45;;
13849;SDS011;6995;52.618;13.488;2023-06-19T05:57:59;47.10;;;42.92;;
13849;SDS011;6995;52.618;13.488;2023-06-19T06:00:25;47.17;;;43.35;;
13849;SDS011;6995;52.618;13.488;2023-06-19T06:02:51;49.00;;;45.95;;
13849;SDS011;6995;52.618;13.488;2023-06-19T06:05:17;45.95;;;42.92;;
13849;SDS011;6995;52.618;13.488;2023-06-19T06:07:45;44.28;;;41.40;;
13849;SDS011;6995;52.618;13.488;2023-06-19T06:10:11;46.63;;;43.67;;
13849;SDS011;6995;52.618;13.488;2023-06-19T06:12:37;44.53;;;41.78;;
13849;SDS011;6995;52.618;13.488;2023-06-19T06:15:03;49.20;;;46.00;;
13849;SDS011;6995;52.618;13.488;2023-06-19T06:17:30;44.67;;;41.90;;
13849;SDS011;6995;52.618;13.488;2023-06-19T06:19:56;44.78;;;42.03;;
13849;SDS011;6995;52.618;13.488;2023-06-19T06:22:22;45.53;;;42.63;;
13849;SDS011;6995;52.618;13.488;2023-06-19T06:24:47;42.35;;;39.72;;
13849;SDS011;6995;52.618;13.488;2023-06-19T06:27:13;40.97;;;38.47;;
13849;SDS011;6995;52.618;13.488;2023-06-19T06:29:39;40.20;;;37.58;;
13849;SDS011;6995;52.618;13.488;2023-06-19T06:32:05;41.15;;;38.25;;
13849;SDS011;6995;52.618;13.488;2023-06-19T06:34:32;40.28;;;37.70;;
13849;SDS011;6995;52.618;13.488;2023-06-19T06:36:58;38.38;;;35.78;;
13849;SDS011;6995;52.618;13.488;2023-06-19T06:39:25;39.20;;;36.70;;
13849;SDS011;6995;52.618;13.488;2023-06-19T06:41:50;36.45;;;33.75;;
13849;SDS011;6995;52.618;13.488;2023-06-19T06:44:16;37.65;;;35.13;;
13849;SDS011;6995;52.618;13.488;2023-06-19T06:46:42;37.97;;;35.38;;
13849;SDS011;6995;52.618;13.488;2023-06-19T06:49:08;39.20;;;36.30;;
13849;SDS011;6995;52.618;13.488;2023-06-19T06:51:34;38.75;;;36.28;;
13849;SDS011;6995;52.618;13.488;2023-06-19T06:53:59;37.08;;;34.78;;
13849;SDS011;6995;52.618;13.488;2023-06-19T06:56:25;34.65;;;32.17;;
13849;SDS011;6995;52.618;13.488;2023-06-19T06:58:51;36.42;;;33.80;;
13849;SDS011;6995;52.618;13.488;2023-06-19T07:01:16;36.88;;;34.42;;
13849;SDS011;6995;52.618;13.488;2023-06-19T07:03:42;37.85;;;35.22;;
13849;SDS011;6995;52.618;13.488;2023-06-19T07:06:08;35.72;;;33.42;;
13849;SDS011;6995;52.618;13.488;2023-06-19T07:08:34;38.83;;;36.13;;
13849;SDS011;6995;52.618;13.488;2023-06-19T07:10:59;37.05;;;34.50;;
13849;SDS011;6995;52.618;13.488;2023-06-19T07:13:25;41.05;;;37.35;;
13849;SDS011;6995;52.618;13.488;2023-06-19T07:15:50;38.75;;;36.03;;
13849;SDS011;6995;52.618;13.488;2023-06-19T07:18:16;40.08;;;37.38;;
13849;SDS011;6995;52.618;13.488;2023-06-19T07:20:42;38.67;;;36.15;;
13849;SDS011;6995;52.618;13.488;2023-06-19T07:23:08;40.05;;;37.28;;
13849;SDS011;6995;52.618;13.488;2023-06-19T07:25:35;38.58;;;36.00;;
13849;SDS011;6995;52.618;13.488;2023-06-19T07:28:00;36.13;;;33.67;;
13849;SDS011;6995;52.618;13.488;2023-06-19T07:30:26;35.83;;;33.28;;
13849;SDS011;6995;52.618;13.488;2023-06-19T07:32:52;35.20;;;32.88;;
13849;SDS011;6995;52.618;13.488;2023-06-19T07:35:18;33.67;;;31.45;;
13849;SDS011;6995;52.618;13.488;2023-06-19T07:37:44;34.28;;;31.77;;
13849;SDS011;6995;52.618;13.488;2023-06-19T07:40:10;36.28;;;33.90;;
13849;SDS011;6995;52.618;13.488;2023-06-19T07:42:36;35.67;;;33.35;;
13849;SDS011;6995;52.618;13.488;2023-06-19T07:45:02;36.35;;;33.78;;
13849;SDS011;6995;52.618;13.488;2023-06-19T07:47:28;36.90;;;34.28;;
13849;SDS011;6995;52.618;13.488;2023-06-19T07:49:54;33.00;;;30.73;;
13849;SDS011;6995;52.618;13.488;2023-06-19T07:52:22;35.83;;;33.22;;
13849;SDS011;6995;52.618;13.488;2023-06-19T07:54:51;34.03;;;31.88;;
13849;SDS011;6995;52.618;13.488;2023-06-19T07:57:21;34.15;;;31.85;;
13849;SDS011;6995;52.618;13.488;2023-06-19T07:59:48;33.63;;;31.23;;
13849;SDS011;6995;52.618;13.488;2023-06-19T08:02:15;32.95;;;30.55;;
13849;SDS011;6995;52.618;13.488;2023-06-19T08:04:41;34.78;;;32.25;;
13849;SDS011;6995;52.618;13.488;2023-06-19T08:07:06;32.85;;;30.63;;
13849;SDS011;6995;52.618;13.488;2023-06-19T08:09:32;32.92;;;30.70;;
13849;SDS011;6995;52.618;13.488;2023-06-19T08:11:58;35.22;;;32.75;;
13849;SDS011;6995;52.618;13.488;2023-06-19T08:14:27;32.38;;;30.17;;
13849;SDS011;6995;52.618;13.488;2023-06-19T08:16:54;32.30;;;30.15;;
13849;SDS011;6995;52.618;13.488;2023-06-19T08:19:19;32.60;;;30.50;;
13849;SDS011;6995;52.618;13.488;2023-06-19T08:21:45;32.60;;;30.50;;
13849;SDS011;6995;52.618;13.488;2023-06-19T08:24:14;33.92;;;31.73;;
13849;SDS011;6995;52.618;13.488;2023-06-19T08:26:40;33.17;;;30.92;;
13849;SDS011;6995;52.618;13.488;2023-06-19T08:29:05;32.60;;;29.77;;
13849;SDS011;6995;52.618;13.488;2023-06-19T08:31:31;33.70;;;31.52;;
13849;SDS011;6995;52.618;13.488;2023-06-19T08:33:57;32.25;;;30.15;;
13849;SDS011;6995;52.618;13.488;2023-06-19T08:36:23;33.10;;;31.00;;
13849;SDS011;6995;52.618;13.488;2023-06-19T08:38:51;32.65;;;30.40;;
13849;SDS011;6995;52.618;13.488;2023-06-19T08:41:18;31.95;;;29.95;;
13849;SDS011;6995;52.618;13.488;2023-06-19T08:43:44;33.72;;;31.38;;
13849;SDS011;6995;52.618;13.488;2023-06-19T08:46:11;33.17;;;31.20;;
13849;SDS011;6995;52.618;13.488;2023-06-19T08:48:39;34.00;;;32.00;;
13849;SDS011;6995;52.618;13.488;2023-06-19T08:51:06;33.97;;;31.45;;
13849;SDS011;6995;52.618;13.488;2023-06-19T08:53:36;44.05;;;41.15;;
13849;SDS011;6995;52.618;13.488;2023-06-19T08:56:09;37.90;;;35.58;;
13849;SDS011;6995;52.618;13.488;2023-06-19T08:58:35;35.03;;;32.92;;
13849;SDS011;6995;52.618;13.488;2023-06-19T09:01:00;34.55;;;32.35;;
13849;SDS011;6995;52.618;13.488;2023-06-19T09:03:26;35.65;;;32.83;;
13849;SDS011;6995;52.618;13.488;2023-06-19T09:05:51;36.47;;;33.97;;
13849;SDS011;6995;52.618;13.488;2023-06-19T09:08:21;35.88;;;33.42;;
13849;SDS011;6995;52.618;13.488;2023-06-19T09:11:00;35.42;;;32.95;;
13849;SDS011;6995;52.618;13.488;2023-06-19T09:13:27;33.85;;;31.85;;
13849;SDS011;6995;52.618;13.488;2023-06-19T09:16:00;32.40;;;30.38;;
13849;SDS011;6995;52.618;13.488;2023-06-19T09:18:42;34.38;;;32.17;;
13849;SDS011;6995;52.618;13.488;2023-06-19T09:21:18;36.90;;;34.38;;
13849;SDS011;6995;52.618;13.488;2023-06-19T09:23:49;35.78;;;33.40;;
13849;SDS011;6995;52.618;13.488;2023-06-19T09:26:17;35.60;;;32.97;;
13849;SDS011;6995;52.618;13.488;2023-06-19T09:28:44;33.88;;;31.58;;
13849;SDS011;6995;52.618;13.488;2023-06-19T09:31:15;36.10;;;33.67;;
13849;SDS011;6995;52.618;13.488;2023-06-19T09:33:40;37.03;;;34.50;;
13849;SDS011;6995;52.618;13.488;2023-06-19T09:36:08;35.90;;;33.70;;
13849;SDS011;6995;52.618;13.488;2023-06-19T09:38:35;36.33;;;33.97;;
13849;SDS011;6995;52.618;13.488;2023-06-19T09:41:04;33.97;;;31.27;;
13849;SDS011;6995;52.618;13.488;2023-06-19T09:43:38;33.42;;;31.05;;
13849;SDS011;6995;52.618;13.488;2023-06-19T09:46:06;35.00;;;32.70;;
13849;SDS011;6995;52.618;13.488;2023-06-19T09:48:42;33.50;;;31.13;;
13849;SDS011;6995;52.618;13.488;2023-06-19T09:51:12;34.28;;;31.98;;
13849;SDS011;6995;52.618;13.488;2023-06-19T09:53:47;32.97;;;30.77;;
13849;SDS011;6995;52.618;13.488;2023-06-19T09:56:15;33.00;;;30.70;;
13849;SDS011;6995;52.618;13.488;2023-06-19T09:58:42;31.63;;;29.48;;
13849;SDS011;6995;52.618;13.488;2023-06-19T10:01:09;31.90;;;29.58;;
13849;SDS011;6995;52.618;13.488;2023-06-19T10:03:36;31.60;;;29.42;;
13849;SDS011;6995;52.618;13.488;2023-06-19T10:06:05;30.63;;;28.75;;
13849;SDS011;6995;52.618;13.488;2023-06-19T10:08:32;34.85;;;32.30;;
13849;SDS011;6995;52.618;13.488;2023-06-19T10:11:04;33.50;;;31.27;;
13849;SDS011;6995;52.618;13.488;2023-06-19T10:13:31;32.83;;;30.38;;
13849;SDS011;6995;52.618;13.488;2023-06-19T10:16:06;34.10;;;31.67;;
13849;SDS011;6995;52.618;13.488;2023-06-19T10:18:43;35.88;;;33.00;;
13849;SDS011;6995;52.618;13.488;2023-06-19T10:21:21;37.70;;;34.70;;
13849;SDS011;6995;52.618;13.488;2023-06-19T10:23:57;34.95;;;32.75;;
13849;SDS011;6995;52.618;13.488;2023-06-19T10:26:35;33.28;;;31.08;;
13849;SDS011;6995;52.618;13.488;2023-06-19T10:29:13;36.83;;;34.35;;
13849;SDS011;6995;52.618;13.488;2023-06-19T10:31:39;34.78;;;32.20;;
13849;SDS011;6995;52.618;13.488;2023-06-19T10:34:05;33.60;;;31.60;;
13849;SDS011;6995;52.618;13.488;2023-06-19T10:36:31;33.13;;;30.92;;
13849;SDS011;6995;52.618;13.488;2023-06-19T10:38:57;34.00;;;31.42;;
13849;SDS011;6995;52.618;13.488;2023-06-19T10:41:23;34.55;;;32.25;;
13849;SDS011;6995;52.618;13.488;2023-06-19T10:44:00;35.25;;;32.65;;
13849;SDS011;6995;52.618;13.488;2023-06-19T10:46:34;32.78;;;30.55;;
13849;SDS011;6995;52.618;13.488;2023-06-19T10:49:01;32.83;;;30.38;;
13849;SDS011;6995;52.618;13.488;2023-06-19T10:51:38;33.05;;;30.48;;
13849;SDS011;6995;52.618;13.488;2023-06-19T10:54:05;33.03;;;30.70;;
13849;SDS011;6995;52.618;13.488;2023-06-19T10:59:05;31.77;;;29.55;;
13849;SDS011;6995;52.618;13.488;2023-06-19T11:01:37;33.42;;;31.02;;
13849;SDS011;6995;52.618;13.488;2023-06-19T11:04:06;40.47;;;37.25;;
13849;SDS011;6995;52.618;13.488;2023-06-19T11:06:32;33.25;;;30.88;;
13849;SDS011;6995;52.618;13.488;2023-06-19T11:08:59;35.35;;;32.85;;
13849;SDS011;6995;52.618;13.488;2023-06-19T11:11:35;36.15;;;33.00;;
13849;SDS011;6995;52.618;13.488;2023-06-19T11:14:05;35.25;;;32.58;;
13849;SDS011;6995;52.618;13.488;2023-06-19T11:16:37;33.03;;;30.83;;
13849;SDS011;6995;52.618;13.488;2023-06-19T11:19:06;31.38;;;29.35;;
13849;SDS011;6995;52.618;13.488;2023-06-19T11:21:39;34.60;;;32.20;;
13849;SDS011;6995;52.618;13.488;2023-06-19T11:24:06;33.00;;;30.92;;
13849;SDS011;6995;52.618;13.488;2023-06-19T11:26:40;32.35;;;30.33;;
13849;SDS011;6995;52.618;13.488;2023-06-19T11:29:22;32.33;;;29.85;;
13849;SDS011;6995;52.618;13.488;2023-06-19T11:31:49;31.80;;;29.58;;
13849;SDS011;6995;52.618;13.488;2023-06-19T11:34:17;33.10;;;30.60;;
13849;SDS011;6995;52.618;13.488;2023-06-19T11:36:44;32.55;;;30.55;;
13849;SDS011;6995;52.618;13.488;2023-06-19T11:39:13;34.60;;;31.65;;
13849;SDS011;6995;52.618;13.488;2023-06-19T11:41:40;38.67;;;36.03;;
13849;SDS011;6995;52.618;13.488;2023-06-19T11:44:11;31.73;;;29.63;;
13849;SDS011;6995;52.618;13.488;2023-06-19T11:46:37;31.70;;;29.60;;
13849;SDS011;6995;52.618;13.488;2023-06-19T11:49:09;30.30;;;28.50;;
13849;SDS011;6995;52.618;13.488;2023-06-19T11:51:41;31.35;;;29.40;;
13849;SDS011;6995;52.618;13.488;2023-06-19T11:54:08;31.50;;;29.60;;
13849;SDS011;6995;52.618;13.488;2023-06-19T11:56:38;32.38;;;30.48;;
13849;SDS011;6995;52.618;13.488;2023-06-19T11:59:04;32.17;;;30.30;;
13849;SDS011;6995;52.618;13.488;2023-06-19T12:01:34;33.95;;;31.73;;
13849;SDS011;6995;52.618;13.488;2023-06-19T12:04:01;36.63;;;34.25;;
13849;SDS011;6995;52.618;13.488;2023-06-19T12:06:27;41.13;;;38.40;;
13849;SDS011;6995;52.618;13.488;2023-06-19T12:08:54;34.08;;;32.10;;
13849;SDS011;6995;52.618;13.488;2023-06-19T12:11:20;26.70;;;24.90;;
13849;SDS011;6995;52.618;13.488;2023-06-19T12:13:45;26.00;;;24.40;;
13849;SDS011;6995;52.618;13.488;2023-06-19T12:16:11;27.48;;;25.67;;
13849;SDS011;6995;52.618;13.488;2023-06-19T12:18:38;26.75;;;24.95;;
13849;SDS011;6995;52.618;13.488;2023-06-19T12:21:03;28.60;;;26.70;;
13849;SDS011;6995;52.618;13.488;2023-06-19T12:23:29;26.98;;;25.13;;
13849;SDS011;6995;52.618;13.488;2023-06-19T12:25:57;26.45;;;24.75;;
13849;SDS011;6995;52.618;13.488;2023-06-19T12:28:23;31.25;;;29.42;;
13849;SDS011;6995;52.618;13.488;2023-06-19T12:30:48;31.50;;;29.40;;
13849;SDS011;6995;52.618;13.488;2023-06-19T12:33:18;32.70;;;30.67;;
13849;SDS011;6995;52.618;13.488;2023-06-19T12:35:44;33.83;;;31.50;;
13849;SDS011;6995;52.618;13.488;2023-06-19T12:38:10;31.95;;;30.00;;
13849;SDS011;6995;52.618;13.488;2023-06-19T12:40:36;34.95;;;32.90;;
13849;SDS011;6995;52.618;13.488;2023-06-19T12:43:02;35.83;;;33.80;;
13849;SDS011;6995;52.618;13.488;2023-06-19T12:45:28;48.65;;;46.22;;
13849;SDS011;6995;52.618;13.488;2023-06-19T12:47:54;26.02;;;24.42;;
13849;SDS011;6995;52.618;13.488;2023-06-19T12:50:19;37.83;;;35.67;;
13849;SDS011;6995;52.618;13.488;2023-06-19T12:52:45;24.95;;;23.42;;
13849;SDS011;6995;52.618;13.488;2023-06-19T12:55:11;26.02;;;24.15;;
13849;SDS011;6995;52.618;13.488;2023-06-19T12:57:36;24.63;;;23.23;;
13849;SDS011;6995;52.618;13.488;2023-06-19T13:00:03;25.75;;;23.60;;
13849;SDS011;6995;52.618;13.488;2023-06-19T13:02:32;26.67;;;24.90;;
13849;SDS011;6995;52.618;13.488;2023-06-19T13:04:58;28.58;;;26.70;;
13849;SDS011;6995;52.618;13.488;2023-06-19T13:07:23;25.30;;;23.67;;
13849;SDS011;6995;52.618;13.488;2023-06-19T13:09:49;26.27;;;24.67;;
13849;SDS011;6995;52.618;13.488;2023-06-19T13:12:15;24.08;;;22.58;;
13849;SDS011;6995;52.618;13.488;2023-06-19T13:14:40;25.92;;;24.15;;
13849;SDS011;6995;52.618;13.488;2023-06-19T13:17:07;26.48;;;24.58;;
13849;SDS011;6995;52.618;13.488;2023-06-19T13:19:32;24.40;;;22.80;;
13849;SDS011;6995;52.618;13.488;2023-06-19T13:21:58;25.48;;;23.95;;
13849;SDS011;6995;52.618;13.488;2023-06-19T13:24:24;24.98;;;22.98;;
13849;SDS011;6995;52.618;13.488;2023-06-19T13:26:52;22.67;;;21.30;;
13849;SDS011;6995;52.618;13.488;2023-06-19T13:29:18;23.15;;;21.65;;
13849;SDS011;6995;52.618;13.488;2023-06-19T13:31:44;25.00;;;23.05;;
13849;SDS011;6995;52.618;13.488;2023-06-19T13:34:10;28.73;;;23.50;;
13849;SDS011;6995;52.618;13.488;2023-06-19T13:36:35;27.15;;;22.23;;
13849;SDS011;6995;52.618;13.488;2023-06-19T13:39:01;24.38;;;22.52;;
13849;SDS011;6995;52.618;13.488;2023-06-19T13:41:27;24.88;;;22.88;;
13849;SDS011;6995;52.618;13.488;2023-06-19T13:43:55;25.13;;;23.30;;
13849;SDS011;6995;52.618;13.488;2023-06-19T13:46:21;24.35;;;22.80;;
13849;SDS011;6995;52.618;13.488;2023-06-19T13:48:47;25.23;;;23.23;;
13849;SDS011;6995;52.618;13.488;2023-06-19T13:51:16;23.48;;;21.67;;
13849;SDS011;6995;52.618;13.488;2023-06-19T13:53:45;24.88;;;23.13;;
13849;SDS011;6995;52.618;13.488;2023-06-19T13:56:14;27.15;;;25.55;;
13849;SDS011;6995;52.618;13.488;2023-06-19T13:58:40;30.27;;;28.40;;
13849;SDS011;6995;52.618;13.488;2023-06-19T14:01:06;27.70;;;26.10;;
13849;SDS011;6995;52.618;13.488;2023-06-19T14:03:32;23.05;;;21.67;;
13849;SDS011;6995;52.618;13.488;2023-06-19T14:05:57;23.27;;;21.65;;
13849;SDS011;6995;52.618;13.488;2023-06-19T14:08:23;25.50;;;23.92;;
13849;SDS011;6995;52.618;13.488;2023-06-19T14:10:49;25.08;;;23.13;;
13849;SDS011;6995;52.618;13.488;2023-06-19T14:13:15;23.05;;;21.48;;
13849;SDS011;6995;52.618;13.488;2023-06-19T14:15:41;23.88;;;22.33;;
13849;SDS011;6995;52.618;13.488;2023-06-19T14:18:07;24.02;;;22.40;;
13849;SDS011;6995;52.618;13.488;2023-06-19T14:20:33;24.33;;;22.73;;
13849;SDS011;6995;52.618;13.488;2023-06-19T14:22:59;22.23;;;20.88;;